createdAt,value
2018-09-28T00:01:36.270Z,18.83
2018-09-28T00:04:05.598Z,17.53
2018-09-28T00:06:34.919Z,16.90
2018-09-28T00:09:06.150Z,17.83
2018-09-28T00:11:36.571Z,18.03
2018-09-28T00:14:05.988Z,18.80
2018-09-28T00:16:35.302Z,17.53
2018-09-28T00:19:04.662Z,16.23
2018-09-28T00:21:34.122Z,15.77
2018-09-28T00:24:03.437Z,17.17
2018-09-28T00:26:32.727Z,16.30
2018-09-28T00:29:02.071Z,18.73
2018-09-28T00:31:31.416Z,17.47
2018-09-28T00:34:00.778Z,19.63
2018-09-28T00:36:30.108Z,16.70
2018-09-28T00:38:59.553Z,16.67
2018-09-28T00:41:28.816Z,16.40
2018-09-28T00:43:58.064Z,13.97
2018-09-28T00:46:27.400Z,16.03
2018-09-28T00:48:56.929Z,16.77
2018-09-28T00:51:26.342Z,14.57
2018-09-28T00:53:55.635Z,17.90
2018-09-28T00:56:24.999Z,15.77
2018-09-28T00:58:54.256Z,17.97
2018-09-28T01:01:23.568Z,18.03
2018-09-28T01:03:53.243Z,16.60
2018-09-28T01:06:22.543Z,16.13
2018-09-28T01:08:51.932Z,15.97
2018-09-28T01:11:21.336Z,15.57
2018-09-28T01:13:50.698Z,18.47
2018-09-28T01:16:20.048Z,16.27
2018-09-28T01:18:49.424Z,16.17
2018-09-28T01:21:18.812Z,16.40
2018-09-28T01:23:48.256Z,17.53
2018-09-28T01:26:19.653Z,18.03
2018-09-28T01:28:48.974Z,18.67
2018-09-28T01:31:18.315Z,15.30
2018-09-28T01:33:47.663Z,16.17
2018-09-28T01:36:17.300Z,15.57
2018-09-28T01:38:46.678Z,16.47
2018-09-28T01:41:16.038Z,18.57
2018-09-28T01:43:45.431Z,17.17
2018-09-28T01:46:14.744Z,16.87
2018-09-28T01:48:44.101Z,16.83
2018-09-28T01:51:13.890Z,15.77
2018-09-28T01:53:43.586Z,16.10
2018-09-28T01:56:12.891Z,15.97
2018-09-28T01:58:42.211Z,15.97
2018-09-28T02:01:11.503Z,17.83
2018-09-28T02:03:40.963Z,16.50
2018-09-28T02:06:10.743Z,17.10
2018-09-28T02:08:40.030Z,19.20
2018-09-28T02:11:09.330Z,14.97
2018-09-28T02:13:38.702Z,17.50
2018-09-28T02:16:08.598Z,18.60
2018-09-28T02:18:37.943Z,20.13
2018-09-28T02:21:07.354Z,19.70
2018-09-28T02:23:36.665Z,20.33
2018-09-28T02:26:05.939Z,16.13
2018-09-28T02:28:35.279Z,21.67
2018-09-28T02:31:09.539Z,20.53
2018-09-28T02:33:38.938Z,19.77
2018-09-28T02:36:08.252Z,18.30
2018-09-28T02:38:37.571Z,20.30
2018-09-28T02:41:07.199Z,17.17
2018-09-28T02:43:37.442Z,23.00
2018-09-28T02:46:07.148Z,23.23
2018-09-28T02:48:36.452Z,21.40
2018-09-28T02:51:10.591Z,19.10
2018-09-28T02:53:39.931Z,24.97
2018-09-28T02:56:09.215Z,21.27
2018-09-28T02:58:38.583Z,24.67
2018-09-28T03:01:08.051Z,22.17
2018-09-28T03:03:37.371Z,28.00
2018-09-28T03:06:06.805Z,23.17
2018-09-28T03:08:36.394Z,22.43
2018-09-28T03:11:05.734Z,24.00
2018-09-28T03:13:34.984Z,22.80
2018-09-28T03:16:06.455Z,21.77
2018-09-28T03:18:36.026Z,22.97
2018-09-28T03:21:05.342Z,26.63
2018-09-28T03:23:34.710Z,24.80
2018-09-28T03:26:04.193Z,22.87
2018-09-28T03:28:33.344Z,23.97
2018-09-28T03:31:02.648Z,29.37
2018-09-28T03:33:31.969Z,23.63
2018-09-28T03:36:01.271Z,24.73
2018-09-28T03:38:30.553Z,23.93
2018-09-28T03:40:59.987Z,25.33
2018-09-28T03:43:29.283Z,28.23
2018-09-28T03:45:58.751Z,24.37
2018-09-28T03:48:28.057Z,23.03
2018-09-28T03:50:58.410Z,26.57
2018-09-28T03:53:27.740Z,26.37
2018-09-28T03:55:57.312Z,24.00
2018-09-28T03:58:26.659Z,23.53
2018-09-28T04:00:55.976Z,24.17
2018-09-28T04:03:25.307Z,25.60
2018-09-28T04:05:54.730Z,25.00
2018-09-28T04:08:23.991Z,25.57
2018-09-28T04:10:53.326Z,25.33
2018-09-28T04:13:22.566Z,25.37
2018-09-28T04:15:51.974Z,25.03
2018-09-28T04:18:21.355Z,27.20
2018-09-28T04:20:50.693Z,27.40
2018-09-28T04:23:20.085Z,24.50
2018-09-28T04:25:49.425Z,27.93
2018-09-28T04:28:18.779Z,27.77
2018-09-28T04:30:48.128Z,25.57
2018-09-28T04:33:17.438Z,26.17
2018-09-28T04:35:46.773Z,25.90
2018-09-28T04:38:16.073Z,27.40
2018-09-28T04:40:45.363Z,26.00
2018-09-28T04:43:14.691Z,25.40
2018-09-28T04:45:44.072Z,24.83
2018-09-28T04:48:13.379Z,23.83
2018-09-28T04:50:42.679Z,30.20
2018-09-28T04:53:12.048Z,28.60
2018-09-28T04:55:41.487Z,27.93
2018-09-28T04:58:10.786Z,25.30
2018-09-28T05:00:40.343Z,28.73
2018-09-28T05:03:10.691Z,25.07
2018-09-28T05:05:40.173Z,26.33
2018-09-28T05:08:09.576Z,31.60
2018-09-28T05:10:38.862Z,23.40
2018-09-28T05:13:08.297Z,25.67
2018-09-28T05:15:37.603Z,28.40
2018-09-28T05:18:06.927Z,24.77
2018-09-28T05:20:36.212Z,28.13
2018-09-28T05:23:05.704Z,24.37
2018-09-28T05:25:35.052Z,25.03
2018-09-28T05:28:04.406Z,27.57
2018-09-28T05:30:34.052Z,22.50
2018-09-28T05:33:03.488Z,25.10
2018-09-28T05:35:32.715Z,19.10
2018-09-28T05:38:02.083Z,20.67
2018-09-28T05:40:31.441Z,16.33
2018-09-28T05:43:00.673Z,18.37
2018-09-28T05:45:29.997Z,20.30
2018-09-28T05:47:59.286Z,17.00
2018-09-28T05:50:28.637Z,21.73
2018-09-28T05:52:57.991Z,18.93
2018-09-28T05:55:27.310Z,18.60
2018-09-28T05:58:01.724Z,17.10
2018-09-28T06:00:36.127Z,17.13
2018-09-28T06:03:09.635Z,18.90
2018-09-28T06:05:41.929Z,20.23
2018-09-28T06:08:11.730Z,18.07
2018-09-28T06:10:41.150Z,15.50
2018-09-28T06:13:10.407Z,19.43
2018-09-28T06:15:39.939Z,16.40
2018-09-28T06:18:09.230Z,14.93
2018-09-28T06:20:38.486Z,16.30
2018-09-28T06:23:07.803Z,14.53
2018-09-28T06:25:37.136Z,20.87
2018-09-28T06:28:07.045Z,18.43
2018-09-28T06:30:36.347Z,18.87
2018-09-28T06:33:05.638Z,17.23
2018-09-28T06:35:35.055Z,16.23
2018-09-28T06:38:04.314Z,16.27
2018-09-28T06:40:33.654Z,17.23
2018-09-28T06:43:02.972Z,20.07
2018-09-28T06:45:32.378Z,18.37
2018-09-28T06:48:02.136Z,13.90
2018-09-28T06:50:37.039Z,14.30
2018-09-28T06:53:06.376Z,11.60
2018-09-28T06:55:35.723Z,16.67
2018-09-28T06:58:05.040Z,16.10
2018-09-28T07:00:34.268Z,14.07
2018-09-28T07:03:04.535Z,13.93
2018-09-28T07:05:34.875Z,20.00
2018-09-28T07:08:04.162Z,20.73
2018-09-28T07:10:33.551Z,21.43
2018-09-28T07:13:02.890Z,18.80
2018-09-28T07:15:33.314Z,18.40
2018-09-28T07:18:03.024Z,19.57
2018-09-28T07:20:32.391Z,21.00
2018-09-28T07:23:01.681Z,19.47
2018-09-28T07:25:31.334Z,18.30
2018-09-28T07:28:00.605Z,16.50
2018-09-28T07:30:30.048Z,18.90
2018-09-28T07:32:59.278Z,18.07
2018-09-28T07:35:28.530Z,23.13
2018-09-28T07:37:57.871Z,16.50
2018-09-28T07:40:27.255Z,22.50
2018-09-28T07:42:56.650Z,13.47
2018-09-28T07:45:27.067Z,19.03
2018-09-28T07:47:56.460Z,16.17
2018-09-28T07:50:25.967Z,22.50
2018-09-28T07:52:55.403Z,19.53
2018-09-28T07:55:24.749Z,18.87
2018-09-28T07:57:54.024Z,17.67
2018-09-28T08:00:23.851Z,21.67
2018-09-28T08:02:53.184Z,17.87
2018-09-28T08:05:32.454Z,17.07
2018-09-28T08:08:01.748Z,17.50
2018-09-28T08:10:31.107Z,17.13
2018-09-28T08:13:00.413Z,19.37
2018-09-28T08:15:29.731Z,17.43
2018-09-28T08:17:59.088Z,19.13
2018-09-28T08:20:28.573Z,16.67
2018-09-28T08:22:57.917Z,14.87
2018-09-28T08:25:27.276Z,18.77
2018-09-28T08:27:56.635Z,20.33
2018-09-28T08:30:26.098Z,13.73
2018-09-28T08:32:55.595Z,17.13
2018-09-28T08:35:24.915Z,15.03
2018-09-28T08:37:54.307Z,18.70
2018-09-28T08:40:23.613Z,14.50
2018-09-28T08:42:54.035Z,21.97
2018-09-28T08:45:25.288Z,18.47
2018-09-28T08:47:55.258Z,17.03
2018-09-28T08:50:24.596Z,14.17
2018-09-28T08:52:55.099Z,17.27
2018-09-28T08:55:24.440Z,18.53
2018-09-28T08:57:53.796Z,19.63
2018-09-28T09:00:23.425Z,14.10
2018-09-28T09:02:52.750Z,14.47
2018-09-28T09:05:22.134Z,16.07
2018-09-28T09:07:51.670Z,12.23
2018-09-28T09:10:20.963Z,18.43
2018-09-28T09:12:50.404Z,18.10
2018-09-28T09:15:19.844Z,19.20
2018-09-28T09:17:49.149Z,17.90
2018-09-28T09:20:18.525Z,13.60
2018-09-28T09:22:47.840Z,13.93
2018-09-28T09:25:17.203Z,16.47
2018-09-28T09:27:47.030Z,13.73
2018-09-28T09:30:16.440Z,13.57
2018-09-28T09:32:46.554Z,13.63
2018-09-28T09:35:15.952Z,14.93
2018-09-28T09:37:45.247Z,13.97
2018-09-28T09:40:14.658Z,16.93
2018-09-28T09:42:44.020Z,12.53
2018-09-28T09:45:13.321Z,13.03
2018-09-28T09:47:42.576Z,16.53
2018-09-28T09:50:11.938Z,16.30
2018-09-28T09:52:41.464Z,17.00
2018-09-28T09:55:10.810Z,15.73
2018-09-28T09:57:40.253Z,12.10
2018-09-28T10:00:09.663Z,11.40
2018-09-28T10:02:44.415Z,13.53
2018-09-28T10:05:13.679Z,15.23
2018-09-28T10:07:42.973Z,12.00
2018-09-28T10:10:12.243Z,12.47
2018-09-28T10:12:42.616Z,12.53
2018-09-28T10:15:11.893Z,14.17
2018-09-28T10:17:41.167Z,13.90
2018-09-28T10:20:10.444Z,13.10
2018-09-28T10:22:39.827Z,13.97
2018-09-28T10:25:09.328Z,14.67
2018-09-28T10:27:38.751Z,13.30
2018-09-28T10:30:08.167Z,11.73
2018-09-28T10:32:37.550Z,14.20
2018-09-28T10:35:06.891Z,13.60
2018-09-28T10:37:36.863Z,9.87
2018-09-28T10:40:06.216Z,12.83
2018-09-28T10:42:36.544Z,13.73
2018-09-28T10:45:06.045Z,10.80
2018-09-28T10:47:35.312Z,9.97
2018-09-28T10:50:04.668Z,13.23
2018-09-28T10:52:34.039Z,11.20
2018-09-28T10:55:03.466Z,11.03
2018-09-28T10:57:32.691Z,10.90
2018-09-28T11:00:02.053Z,9.30
2018-09-28T11:02:31.506Z,9.97
2018-09-28T11:05:00.995Z,9.57
2018-09-28T11:07:30.241Z,9.53
2018-09-28T11:09:59.634Z,8.87
2018-09-28T11:12:28.919Z,8.27
2018-09-28T11:14:58.304Z,9.07
2018-09-28T11:17:27.576Z,9.03
2018-09-28T11:19:56.875Z,9.97
2018-09-28T11:22:26.216Z,13.43
2018-09-28T11:24:55.553Z,12.33
2018-09-28T11:27:24.927Z,11.07
2018-09-28T11:29:54.147Z,12.23
2018-09-28T11:32:23.411Z,13.20
2018-09-28T11:34:52.715Z,13.50
2018-09-28T11:37:21.977Z,9.57
2018-09-28T11:39:51.622Z,9.57
2018-09-28T11:42:20.891Z,10.50
2018-09-28T11:44:50.383Z,13.37
2018-09-28T11:47:19.685Z,9.03
2018-09-28T11:49:48.958Z,11.07
2018-09-28T11:52:18.259Z,9.57
2018-09-28T11:54:47.519Z,5.27
2018-09-28T11:57:16.891Z,5.93
2018-09-28T11:59:46.130Z,4.03
2018-09-28T12:02:15.403Z,4.03
2018-09-28T12:04:44.656Z,5.40
2018-09-28T12:07:14.139Z,6.20
2018-09-28T12:09:43.423Z,4.87
2018-09-28T12:12:12.673Z,4.40
2018-09-28T12:14:42.264Z,6.03
2018-09-28T12:17:11.615Z,5.63
2018-09-28T12:19:41.414Z,6.47
2018-09-28T12:22:10.919Z,6.03
2018-09-28T12:24:41.249Z,9.53
2018-09-28T12:27:11.523Z,4.27
2018-09-28T12:29:40.867Z,5.10
2018-09-28T12:32:10.171Z,5.07
2018-09-28T12:34:39.450Z,7.20
2018-09-28T12:37:08.708Z,8.53
2018-09-28T12:39:38.004Z,9.00
2018-09-28T12:42:07.460Z,7.10
2018-09-28T12:44:37.013Z,6.07
2018-09-28T12:47:06.311Z,5.40
2018-09-28T12:49:36.637Z,6.17
2018-09-28T12:52:06.226Z,8.93
2018-09-28T12:54:35.627Z,8.73
2018-09-28T12:57:05.004Z,7.13
2018-09-28T12:59:34.322Z,10.30
2018-09-28T13:02:04.823Z,9.20
2018-09-28T13:04:34.143Z,7.13
2018-09-28T13:07:03.448Z,5.03
2018-09-28T13:09:32.803Z,8.40
2018-09-28T13:12:02.052Z,10.20
2018-09-28T13:14:31.353Z,9.77
2018-09-28T13:17:00.650Z,9.77
2018-09-28T13:19:29.906Z,8.93
2018-09-28T13:21:59.211Z,8.83
2018-09-28T13:24:28.562Z,9.67
2018-09-28T13:26:58.179Z,8.37
2018-09-28T13:29:28.434Z,10.80
2018-09-28T13:31:57.683Z,8.40
2018-09-28T13:34:28.125Z,6.83
2018-09-28T13:36:57.652Z,6.10
2018-09-28T13:39:28.093Z,5.07
2018-09-28T13:41:57.412Z,6.73
2018-09-28T13:44:27.080Z,5.30
2018-09-28T13:46:56.468Z,8.30
2018-09-28T13:49:25.650Z,9.87
2018-09-28T13:51:55.237Z,8.23
2018-09-28T13:54:24.527Z,7.07
2018-09-28T13:56:53.815Z,7.30
2018-09-28T13:59:24.219Z,6.07
2018-09-28T14:01:53.487Z,8.73
2018-09-28T14:04:23.894Z,9.07
2018-09-28T14:06:53.358Z,9.10
2018-09-28T14:09:22.664Z,7.67
2018-09-28T14:11:51.990Z,8.47
2018-09-28T14:14:21.404Z,9.97
2018-09-28T14:16:50.690Z,8.17
2018-09-28T14:19:19.970Z,8.63
2018-09-28T14:21:49.244Z,14.30
2018-09-28T14:24:18.581Z,10.20
2018-09-28T14:26:51.413Z,7.27
2018-09-28T14:29:20.648Z,7.87
2018-09-28T14:31:50.004Z,8.60
2018-09-28T14:34:19.319Z,8.60
2018-09-28T14:36:48.681Z,8.87
2018-09-28T14:39:18.039Z,12.60
2018-09-28T14:41:47.354Z,8.73
2018-09-28T14:44:16.679Z,8.83
2018-09-28T14:46:46.035Z,10.17
2018-09-28T14:49:15.364Z,7.43
2018-09-28T14:51:45.520Z,7.20
2018-09-28T14:54:14.867Z,7.97
2018-09-28T14:56:44.324Z,8.93
2018-09-28T14:59:13.670Z,12.17
2018-09-28T15:01:42.949Z,8.30
2018-09-28T15:04:12.219Z,7.73
2018-09-28T15:06:41.882Z,9.40
2018-09-28T15:09:11.032Z,9.30
2018-09-28T15:11:40.326Z,9.87
2018-09-28T15:14:09.853Z,8.00
2018-09-28T15:16:39.750Z,6.67
2018-09-28T15:19:09.048Z,7.03
2018-09-28T15:21:38.343Z,9.87
2018-09-28T15:24:07.791Z,7.60
2018-09-28T15:26:37.306Z,7.93
2018-09-28T15:29:06.598Z,5.90
2018-09-28T15:31:36.180Z,6.43
2018-09-28T15:34:05.487Z,8.33
2018-09-28T15:36:34.691Z,4.77
2018-09-28T15:39:06.406Z,7.33
2018-09-28T15:41:36.819Z,6.83
2018-09-28T15:44:06.190Z,8.60
2018-09-28T15:46:35.625Z,8.10
2018-09-28T15:49:04.981Z,5.63
2018-09-28T15:51:34.326Z,7.80
2018-09-28T15:54:03.572Z,9.13
2018-09-28T15:56:32.928Z,9.70
2018-09-28T15:59:02.416Z,9.67
2018-09-28T16:01:31.652Z,7.17
2018-09-28T16:04:01.014Z,9.53
2018-09-28T16:06:30.390Z,8.60
2018-09-28T16:08:59.908Z,8.80
2018-09-28T16:11:29.327Z,11.23
2018-09-28T16:13:58.620Z,4.97
2018-09-28T16:16:28.065Z,8.87
2018-09-28T16:18:57.343Z,7.43
2018-09-28T16:21:26.636Z,5.63
2018-09-28T16:23:56.183Z,9.93
2018-09-28T16:26:25.976Z,7.50
2018-09-28T16:28:55.245Z,9.50
2018-09-28T16:31:24.534Z,8.20
2018-09-28T16:33:53.820Z,6.37
2018-09-28T16:36:23.183Z,5.47
2018-09-28T16:38:52.672Z,7.80
2018-09-28T16:41:21.937Z,8.97
2018-09-28T16:43:51.403Z,9.07
2018-09-28T16:46:20.727Z,6.13
2018-09-28T16:48:50.114Z,7.17
2018-09-28T16:51:22.025Z,4.73
2018-09-28T16:53:51.343Z,7.30
2018-09-28T16:56:21.032Z,9.87
2018-09-28T16:58:50.482Z,6.40
2018-09-28T17:01:19.790Z,8.63
2018-09-28T17:03:49.159Z,5.03
2018-09-28T17:06:18.403Z,8.47
2018-09-28T17:08:47.666Z,7.20
2018-09-28T17:11:17.017Z,7.80
2018-09-28T17:13:46.222Z,7.37
2018-09-28T17:16:15.973Z,9.53
2018-09-28T17:18:45.331Z,4.37
2018-09-28T17:21:14.714Z,4.83
2018-09-28T17:23:44.328Z,5.57
2018-09-28T17:26:14.624Z,9.23
2018-09-28T17:28:43.999Z,6.73
2018-09-28T17:31:13.378Z,8.33
2018-09-28T17:33:42.729Z,7.43
2018-09-28T17:36:12.017Z,8.27
2018-09-28T17:38:41.529Z,6.13
2018-09-28T17:41:10.833Z,8.07
2018-09-28T17:43:40.087Z,8.30
2018-09-28T17:46:09.349Z,7.10
2018-09-28T17:48:39.896Z,7.57
2018-09-28T17:51:10.241Z,10.13
2018-09-28T17:53:39.542Z,10.43
2018-09-28T17:56:08.983Z,6.80
2018-09-28T17:58:38.282Z,8.53
2018-09-28T18:01:08.021Z,7.77
2018-09-28T18:03:37.376Z,7.43
2018-09-28T18:06:06.943Z,5.60
2018-09-28T18:08:36.206Z,10.53
2018-09-28T18:11:05.484Z,4.87
2018-09-28T18:13:34.875Z,8.90
2018-09-28T18:16:04.128Z,6.13
2018-09-28T18:18:33.439Z,6.47
2018-09-28T18:21:02.675Z,12.80
2018-09-28T18:23:32.333Z,10.27
2018-09-28T18:26:01.615Z,12.13
2018-09-28T18:28:30.847Z,9.43
2018-09-28T18:31:00.107Z,7.23
2018-09-28T18:33:29.424Z,8.90
2018-09-28T18:35:58.703Z,6.77
2018-09-28T18:38:27.959Z,11.73
2018-09-28T18:40:57.631Z,9.93
2018-09-28T18:43:26.870Z,12.13
2018-09-28T18:45:56.240Z,6.23
2018-09-28T18:48:26.026Z,12.43
2018-09-28T18:50:55.253Z,8.43
2018-09-28T18:53:25.622Z,14.43
2018-09-28T18:55:54.926Z,10.60
2018-09-28T18:58:24.190Z,12.17
2018-09-28T19:00:55.538Z,10.70
2018-09-28T19:03:24.750Z,11.83
2018-09-28T19:05:54.203Z,7.97
2018-09-28T19:08:23.527Z,13.50
2018-09-28T19:10:52.812Z,10.47
2018-09-28T19:13:22.172Z,12.00
2018-09-28T19:15:52.522Z,11.33
2018-09-28T19:18:21.727Z,13.17
2018-09-28T19:20:51.141Z,10.90
2018-09-28T19:23:20.568Z,15.57
2018-09-28T19:25:51.991Z,11.37
2018-09-28T19:28:21.263Z,10.03
2018-09-28T19:30:50.554Z,14.90
2018-09-28T19:33:20.239Z,8.73
2018-09-28T19:35:49.779Z,8.43
2018-09-28T19:38:19.152Z,12.30
2018-09-28T19:40:48.423Z,8.87
2018-09-28T19:43:17.686Z,9.73
2018-09-28T19:45:46.978Z,14.87
2018-09-28T19:48:16.203Z,14.93
2018-09-28T19:50:45.462Z,10.33
2018-09-28T19:53:14.728Z,9.67
2018-09-28T19:55:44.054Z,11.60
2018-09-28T19:58:19.308Z,10.33
2018-09-28T20:00:48.573Z,8.73
2018-09-28T20:03:17.868Z,12.57
2018-09-28T20:05:47.122Z,10.77
2018-09-28T20:08:16.367Z,11.97
2018-09-28T20:10:46.034Z,14.70
2018-09-28T20:13:15.367Z,11.43
2018-09-28T20:15:46.037Z,10.83
2018-09-28T20:18:16.340Z,8.03
2018-09-28T20:20:45.559Z,8.40
2018-09-28T20:23:15.010Z,8.07
2018-09-28T20:25:45.340Z,9.27
2018-09-28T20:28:14.571Z,11.97
2018-09-28T20:30:43.956Z,7.37
2018-09-28T20:33:13.218Z,11.27
2018-09-28T20:35:42.539Z,11.00
2018-09-28T20:38:11.782Z,11.47
2018-09-28T20:40:41.056Z,10.40
2018-09-28T20:43:10.472Z,10.97
2018-09-28T20:45:39.688Z,9.87
2018-09-28T20:48:10.030Z,11.47
2018-09-28T20:50:39.292Z,8.30
2018-09-28T20:53:08.918Z,7.23
2018-09-28T20:55:38.427Z,11.30
2018-09-28T20:58:07.674Z,9.00
2018-09-28T21:00:40.565Z,6.30
2018-09-28T21:03:10.160Z,5.90
2018-09-28T21:05:39.486Z,12.90
2018-09-28T21:08:08.673Z,8.07
2018-09-28T21:10:39.075Z,9.97
2018-09-28T21:13:08.340Z,9.23
2018-09-28T21:15:37.655Z,9.80
2018-09-28T21:18:06.926Z,10.87
2018-09-28T21:20:36.270Z,10.97
2018-09-28T21:23:08.343Z,11.33
2018-09-28T21:25:40.647Z,8.70
2018-09-28T21:28:12.439Z,10.47
2018-09-28T21:30:42.107Z,10.00
2018-09-28T21:33:11.812Z,11.87
2018-09-28T21:35:41.160Z,10.63
2018-09-28T21:38:10.517Z,8.70
2018-09-28T21:40:40.161Z,8.00
2018-09-28T21:43:09.816Z,10.23
2018-09-28T21:45:39.314Z,12.13
2018-09-28T21:48:10.002Z,11.93
2018-09-28T21:50:39.753Z,11.03
2018-09-28T21:53:12.810Z,9.80
2018-09-28T21:55:42.282Z,22.97
2018-09-28T21:58:11.646Z,12.10
2018-09-28T22:00:41.278Z,11.60
2018-09-28T22:03:18.236Z,11.03
2018-09-28T22:05:47.503Z,10.10
2018-09-28T22:08:16.981Z,10.40
2018-09-28T22:10:46.423Z,7.57
2018-09-28T22:13:24.584Z,11.33
2018-09-28T22:15:54.037Z,11.43
2018-09-28T22:18:24.296Z,8.80
2018-09-28T22:20:54.165Z,12.83
2018-09-28T22:23:23.523Z,9.20
2018-09-28T22:25:52.858Z,6.83
2018-09-28T22:28:22.196Z,8.33
2018-09-28T22:30:52.487Z,6.93
2018-09-28T22:33:21.800Z,9.17
2018-09-28T22:35:51.155Z,9.20
2018-09-28T22:38:20.459Z,10.73
2018-09-28T22:40:49.742Z,9.50
2018-09-28T22:43:19.046Z,9.70
2018-09-28T22:45:48.655Z,7.80
2018-09-28T22:48:18.376Z,10.03
2018-09-28T22:50:47.647Z,7.97
2018-09-28T22:53:16.988Z,9.73
2018-09-28T22:55:46.302Z,8.93
2018-09-28T22:58:15.820Z,9.07
2018-09-28T23:00:45.087Z,8.33
2018-09-28T23:03:14.421Z,8.97
2018-09-28T23:05:44.222Z,6.40
2018-09-28T23:08:13.496Z,7.70
2018-09-28T23:10:42.931Z,9.67
2018-09-28T23:13:12.136Z,8.83
2018-09-28T23:15:41.471Z,8.47
2018-09-28T23:18:10.807Z,10.43
2018-09-28T23:20:40.719Z,9.23
2018-09-28T23:23:10.056Z,9.60
2018-09-28T23:25:39.499Z,4.93
2018-09-28T23:28:08.796Z,7.47
2018-09-28T23:30:38.116Z,10.87
2018-09-28T23:33:07.444Z,6.80
2018-09-28T23:35:36.688Z,12.13
2018-09-28T23:38:06.060Z,9.70
2018-09-28T23:40:35.436Z,9.07
2018-09-28T23:43:04.873Z,8.00
2018-09-28T23:45:34.635Z,7.20
2018-09-28T23:48:03.982Z,5.60
2018-09-28T23:50:33.552Z,12.70
2018-09-28T23:53:02.848Z,8.07
2018-09-28T23:55:32.172Z,6.63
2018-09-28T23:58:01.504Z,8.30
